Hawthorn Woods, Illinois
Current Conditions -  °F | °C
As of 7:52 AM on Wednesday 22 Oct 2014 (Local Time) from KPWK Reporting Station
Clear Clear  
Wind Chill: 40°   Ceiling: Unl
Heat Index: 43°   Visibility: 10mi
Dew Point: 38°   Wind: 5mph
Humidity: 82%   Direction: 320°NW
Pressure: 30.35"   Gusts: NA
Location:  42.201°N, 88.0504°W
Report Text: KPWK 221252Z 32004KT 10SM CLR 06/03 A3035 RMK AO2 SLP283 T00610033
Loading
Personal Weather Stations






























Interactive Weather Map
Tropical Storm Tracking
New forecast layout! Learn more

10-Day Weather Forecast

Advertisements
Track Severe Weather on mobile